Airport details for: LGSY (Greece)

Metar

LGSY 190950Z 31007KT CAVOK 21/14 Q1017 RMK SCT230 BLU

General details

ICAO: LGSY
IATA: SKU
Name (city): Skiros Ab
Major:
Country: Greece
vACC: Hellenic vACC
Description:

Skyros Island National Airport (IATA: SKU, ICAO: LGSY) is an airport serving the island of Skyros in Greece.

Scenery links:
FS9 scenery:
FSX/P3D scenery:
XP scenery:
Elevation: 44 ft.
Transition altitude: 8000 ft.
MSA: 9800 ft.
Latitude: 38.9675
Longitude: 24.4875
LGSY Charts
LGSY Notams
LGSY Online stations

Runways

Number Course Length Elevation Lat Lon ILS ILS freq ILS FAC GP
17 173° 9849ft / 3002 m 13ft 38.979564 24.4865 - - 3.0°
35 353° 9849ft / 3002 m 39ft 38.961259 24.488136 - - 3.0°